createdAt,value
2019-03-29T00:02:13.617Z,5.97
2019-03-29T00:04:44.757Z,7.42
2019-03-29T00:07:14.912Z,6.40
2019-03-29T00:09:47.800Z,5.85
2019-03-29T00:12:19.567Z,6.87
2019-03-29T00:14:49.724Z,5.95
2019-03-29T00:17:19.904Z,6.92
2019-03-29T00:19:50.077Z,8.03
2019-03-29T00:22:20.226Z,6.70
2019-03-29T00:24:50.442Z,6.80
2019-03-29T00:27:20.592Z,7.83
2019-03-29T00:29:50.757Z,4.55
2019-03-29T00:32:22.078Z,4.70
2019-03-29T00:34:52.216Z,5.58
2019-03-29T00:37:22.382Z,5.75
2019-03-29T00:39:52.546Z,4.80
2019-03-29T00:42:24.528Z,5.92
2019-03-29T00:44:54.871Z,4.55
2019-03-29T00:47:25.672Z,8.95
2019-03-29T00:49:57.546Z,7.65
2019-03-29T00:52:27.703Z,3.83
2019-03-29T00:54:57.894Z,4.10
2019-03-29T00:57:28.040Z,7.65
2019-03-29T00:59:58.209Z,3.72
2019-03-29T01:02:30.005Z,4.42
2019-03-29T01:05:02.693Z,6.85
2019-03-29T01:07:32.861Z,8.58
2019-03-29T01:10:04.209Z,4.50
2019-03-29T01:12:34.491Z,4.90
2019-03-29T01:15:08.880Z,10.55
2019-03-29T01:17:42.152Z,4.72
2019-03-29T01:20:12.599Z,3.87
2019-03-29T01:22:42.745Z,4.40
2019-03-29T01:25:13.156Z,10.65
2019-03-29T01:27:43.320Z,5.35
2019-03-29T01:30:13.628Z,3.58
2019-03-29T01:32:43.922Z,6.15
2019-03-29T01:35:18.154Z,6.78
2019-03-29T01:37:48.291Z,4.05
2019-03-29T01:40:18.730Z,7.92
2019-03-29T01:42:48.971Z,4.55
2019-03-29T01:45:19.936Z,8.95
2019-03-29T01:47:51.198Z,4.92
2019-03-29T01:50:21.336Z,4.87
2019-03-29T01:52:55.475Z,4.25
2019-03-29T01:55:25.649Z,10.20
2019-03-29T01:57:55.784Z,5.37
2019-03-29T02:00:33.509Z,4.95
2019-03-29T02:03:04.176Z,5.25
2019-03-29T02:05:34.325Z,4.00
2019-03-29T02:08:05.044Z,3.65
2019-03-29T02:10:35.687Z,9.03
2019-03-29T02:13:05.920Z,4.22
2019-03-29T02:15:36.170Z,8.10
2019-03-29T02:18:06.313Z,4.62
2019-03-29T02:20:36.498Z,7.33
2019-03-29T02:23:06.738Z,5.62
2019-03-29T02:25:36.877Z,4.62
2019-03-29T02:28:07.026Z,4.40
2019-03-29T02:30:37.169Z,7.03
2019-03-29T02:33:07.319Z,3.98
2019-03-29T02:35:39.044Z,4.90
2019-03-29T02:38:09.204Z,3.27
2019-03-29T02:40:39.451Z,6.83
2019-03-29T02:43:10.801Z,5.55
2019-03-29T02:45:42.595Z,4.40
2019-03-29T02:48:12.833Z,4.37
2019-03-29T02:50:42.992Z,9.90
2019-03-29T02:53:13.155Z,7.00
2019-03-29T02:55:43.324Z,6.67
2019-03-29T02:58:18.464Z,5.15
2019-03-29T03:00:48.711Z,6.30
2019-03-29T03:03:18.949Z,4.83
2019-03-29T03:05:49.199Z,7.87
2019-03-29T03:08:19.379Z,3.55
2019-03-29T03:10:49.583Z,4.37
2019-03-29T03:13:21.316Z,3.05
2019-03-29T03:15:54.340Z,5.53
2019-03-29T03:18:24.542Z,9.43
2019-03-29T03:20:58.692Z,3.30
2019-03-29T03:23:28.873Z,7.35
2019-03-29T03:25:59.042Z,7.47
2019-03-29T03:28:30.422Z,4.62
2019-03-29T03:31:00.625Z,5.20
2019-03-29T03:33:30.757Z,4.00
2019-03-29T03:36:00.881Z,5.22
2019-03-29T03:38:31.095Z,6.33
2019-03-29T03:41:01.244Z,7.28
2019-03-29T03:43:39.643Z,4.90
2019-03-29T03:46:09.886Z,7.25
2019-03-29T03:48:40.146Z,6.15
2019-03-29T03:51:20.487Z,2.80
2019-03-29T03:53:50.930Z,7.55
2019-03-29T03:56:22.660Z,4.08
2019-03-29T03:58:53.447Z,2.98
2019-03-29T04:01:23.603Z,5.58
2019-03-29T04:03:53.856Z,3.50
2019-03-29T04:06:23.996Z,4.40
2019-03-29T04:08:57.616Z,2.87
2019-03-29T04:11:27.805Z,3.95
2019-03-29T04:13:57.936Z,3.45
2019-03-29T04:16:28.083Z,5.12
2019-03-29T04:18:58.229Z,6.45
2019-03-29T04:21:30.648Z,4.30
2019-03-29T04:24:00.784Z,4.95
2019-03-29T04:26:30.929Z,6.80
2019-03-29T04:29:04.582Z,10.43
2019-03-29T04:31:33.029Z,9.28
2019-03-29T04:34:04.107Z,3.20
2019-03-29T04:36:34.818Z,3.40
2019-03-29T04:39:05.999Z,6.53
2019-03-29T04:41:37.991Z,2.95
2019-03-29T04:44:09.756Z,2.35
2019-03-29T04:46:39.916Z,6.50
2019-03-29T04:49:10.137Z,4.78
2019-03-29T04:51:40.276Z,3.12
2019-03-29T04:54:10.436Z,4.85
2019-03-29T04:56:42.675Z,4.80
2019-03-29T04:59:12.816Z,5.05
2019-03-29T05:01:42.971Z,7.58
2019-03-29T05:04:13.127Z,4.53
2019-03-29T05:06:43.296Z,4.20
2019-03-29T05:09:14.412Z,5.90
2019-03-29T05:11:44.905Z,3.00
2019-03-29T05:14:15.033Z,4.35
2019-03-29T05:16:45.199Z,2.50
2019-03-29T05:19:15.390Z,3.40
2019-03-29T05:21:45.558Z,5.05
2019-03-29T05:24:15.719Z,4.30
2019-03-29T05:26:53.087Z,2.58
2019-03-29T05:29:20.895Z,5.50
2019-03-29T05:31:53.585Z,3.45
2019-03-29T05:34:22.965Z,7.15
2019-03-29T05:36:53.133Z,2.92
2019-03-29T05:39:23.460Z,3.55
2019-03-29T05:41:53.603Z,5.25
2019-03-29T05:44:23.756Z,2.40
2019-03-29T05:46:57.539Z,3.20
2019-03-29T05:49:27.880Z,2.12
2019-03-29T05:51:58.047Z,3.08
2019-03-29T05:54:28.222Z,5.30
2019-03-29T05:56:58.373Z,4.25
2019-03-29T05:59:28.529Z,5.25
2019-03-29T06:01:58.699Z,4.37
2019-03-29T06:04:31.026Z,4.25
2019-03-29T06:07:02.653Z,3.08
2019-03-29T06:09:34.973Z,2.22
2019-03-29T06:12:04.668Z,3.85
2019-03-29T06:14:34.845Z,3.60
2019-03-29T06:17:06.013Z,3.90
2019-03-29T06:19:36.254Z,5.35
2019-03-29T06:22:07.332Z,3.67
2019-03-29T06:24:37.485Z,3.72
2019-03-29T06:27:07.649Z,5.70
2019-03-29T06:29:37.916Z,7.40
2019-03-29T06:32:09.700Z,2.30
2019-03-29T06:34:41.400Z,4.47
2019-03-29T06:37:12.218Z,6.37
2019-03-29T06:39:44.673Z,2.95
2019-03-29T06:42:14.823Z,3.50
2019-03-29T06:44:45.010Z,2.95
2019-03-29T06:47:15.262Z,2.85
2019-03-29T06:49:45.623Z,6.22
2019-03-29T06:52:15.830Z,2.77
2019-03-29T06:54:45.981Z,2.45
2019-03-29T06:57:16.178Z,2.10
2019-03-29T06:59:46.332Z,3.50
2019-03-29T07:02:16.501Z,5.70
2019-03-29T07:04:46.672Z,9.08
2019-03-29T07:07:16.907Z,4.03
2019-03-29T07:09:47.044Z,5.42
2019-03-29T07:12:17.188Z,7.33
2019-03-29T07:14:47.363Z,4.53
2019-03-29T07:17:17.563Z,6.40
2019-03-29T07:19:49.467Z,3.98
2019-03-29T07:22:19.648Z,6.87
2019-03-29T07:24:49.832Z,4.58
2019-03-29T07:27:22.865Z,6.12
2019-03-29T07:29:53.054Z,13.90
2019-03-29T07:32:23.233Z,5.97
2019-03-29T07:34:53.513Z,4.70
2019-03-29T07:37:23.690Z,8.13
2019-03-29T07:39:54.093Z,4.65
2019-03-29T07:42:29.435Z,5.92
2019-03-29T07:44:59.593Z,5.25
2019-03-29T07:47:29.831Z,4.25
2019-03-29T07:50:02.152Z,4.62
2019-03-29T07:52:32.374Z,4.67
2019-03-29T07:55:02.580Z,3.70
2019-03-29T07:57:33.839Z,2.98
2019-03-29T08:00:04.284Z,4.05
2019-03-29T08:02:35.138Z,11.20
2019-03-29T08:05:07.075Z,3.45
2019-03-29T08:07:39.524Z,6.22
2019-03-29T08:10:18.963Z,7.80
2019-03-29T08:12:42.026Z,6.45
2019-03-29T08:15:14.674Z,5.58
2019-03-29T08:17:44.836Z,7.22
2019-03-29T08:20:38.081Z,6.05
2019-03-29T08:22:47.169Z,8.23
2019-03-29T08:25:17.624Z,8.05
2019-03-29T08:27:47.850Z,7.08
2019-03-29T08:30:18.918Z,8.05
2019-03-29T08:32:49.300Z,10.40
2019-03-29T08:35:19.573Z,6.70
2019-03-29T08:37:49.824Z,2.98
2019-03-29T08:40:21.618Z,7.35
2019-03-29T08:42:51.859Z,3.37
2019-03-29T08:45:22.095Z,4.85
2019-03-29T08:47:52.599Z,6.72
2019-03-29T08:50:22.868Z,5.58
2019-03-29T08:52:54.317Z,5.70
2019-03-29T08:55:24.492Z,10.40
2019-03-29T08:57:54.775Z,7.37
2019-03-29T09:00:32.138Z,3.25
2019-03-29T09:03:02.395Z,4.25
2019-03-29T09:05:32.646Z,3.70
2019-03-29T09:08:02.997Z,3.27
2019-03-29T09:10:33.407Z,2.75
2019-03-29T09:13:04.560Z,5.78
2019-03-29T09:15:35.073Z,5.22
2019-03-29T09:18:05.216Z,8.05
2019-03-29T09:20:35.440Z,6.22
2019-03-29T09:23:05.711Z,7.50
2019-03-29T09:25:40.552Z,8.80
2019-03-29T09:28:10.903Z,3.80
2019-03-29T09:30:41.551Z,3.90
2019-03-29T09:33:11.743Z,5.67
2019-03-29T09:35:44.551Z,7.35
2019-03-29T09:38:23.397Z,8.00
2019-03-29T09:40:58.721Z,3.00
2019-03-29T09:43:26.808Z,4.22
2019-03-29T09:46:02.973Z,8.55
2019-03-29T09:48:34.446Z,3.75
2019-03-29T09:51:03.499Z,4.67
2019-03-29T09:53:33.730Z,6.50
2019-03-29T09:56:03.873Z,6.80
2019-03-29T09:58:34.020Z,4.78
2019-03-29T10:01:04.375Z,15.83
2019-03-29T10:03:34.537Z,5.15
2019-03-29T10:06:07.474Z,6.70
2019-03-29T10:08:39.809Z,5.80
2019-03-29T10:11:11.106Z,12.13
2019-03-29T10:13:41.351Z,8.05
2019-03-29T10:16:11.553Z,5.35
2019-03-29T10:18:42.803Z,5.22
2019-03-29T10:21:12.975Z,8.00
2019-03-29T10:23:43.137Z,5.03
2019-03-29T10:26:13.306Z,5.95
2019-03-29T10:28:43.562Z,7.87
2019-03-29T10:31:14.824Z,5.97
2019-03-29T10:33:45.066Z,6.65
2019-03-29T10:36:15.340Z,6.33
2019-03-29T10:38:45.602Z,3.72
2019-03-29T10:41:15.779Z,3.62
2019-03-29T10:43:45.936Z,6.20
2019-03-29T10:46:17.372Z,3.65
2019-03-29T10:48:47.599Z,7.60
2019-03-29T10:51:18.724Z,5.62
2019-03-29T10:53:48.911Z,6.12
2019-03-29T10:56:32.994Z,5.87
2019-03-29T10:58:50.995Z,6.15
2019-03-29T11:01:23.277Z,6.37
2019-03-29T11:03:53.186Z,13.98
2019-03-29T11:06:23.343Z,10.65
2019-03-29T11:08:53.510Z,7.67
2019-03-29T11:11:23.685Z,8.80
2019-03-29T11:13:56.629Z,10.60
2019-03-29T11:16:27.180Z,6.62
2019-03-29T11:18:57.764Z,6.35
2019-03-29T11:21:28.117Z,9.50
2019-03-29T11:23:58.274Z,7.22
2019-03-29T11:26:28.547Z,5.58
2019-03-29T11:28:59.804Z,8.18
2019-03-29T11:31:30.229Z,7.62
2019-03-29T11:34:00.590Z,5.92
2019-03-29T11:36:30.835Z,9.28
2019-03-29T11:39:01.263Z,19.37
2019-03-29T11:41:33.418Z,9.48
2019-03-29T11:44:04.170Z,40.45
2019-03-29T11:46:34.420Z,48.80
2019-03-29T11:49:05.024Z,44.95
2019-03-29T11:51:37.666Z,54.95
2019-03-29T11:54:07.920Z,58.83
2019-03-29T11:56:38.419Z,36.95
2019-03-29T11:59:09.108Z,57.50
2019-03-29T12:01:39.448Z,53.78
2019-03-29T12:04:09.675Z,47.40
2019-03-29T12:06:39.948Z,53.05
2019-03-29T12:09:11.787Z,46.10
2019-03-29T12:11:42.328Z,64.65
2019-03-29T12:14:12.610Z,53.52
2019-03-29T12:16:47.191Z,44.63
2019-03-29T12:19:17.374Z,46.70
2019-03-29T12:21:47.530Z,50.73
2019-03-29T12:24:17.702Z,46.63
2019-03-29T12:26:47.913Z,45.70
2019-03-29T12:29:18.922Z,52.88
2019-03-29T12:31:49.177Z,37.40
2019-03-29T12:34:20.924Z,69.53
2019-03-29T12:36:51.129Z,60.10
2019-03-29T12:39:22.526Z,51.68
2019-03-29T12:41:52.771Z,40.25
2019-03-29T12:44:23.126Z,43.58
2019-03-29T12:46:55.910Z,59.98
2019-03-29T12:49:28.900Z,60.85
2019-03-29T12:51:59.622Z,46.00
2019-03-29T12:54:29.853Z,44.73
2019-03-29T12:57:00.242Z,59.58
2019-03-29T12:59:32.986Z,50.45
2019-03-29T13:02:04.519Z,60.20
2019-03-29T13:04:34.841Z,51.55
2019-03-29T13:07:05.234Z,50.78
2019-03-29T13:09:35.891Z,46.23
2019-03-29T13:12:07.351Z,52.43
2019-03-29T13:14:39.383Z,41.28
2019-03-29T13:17:12.182Z,58.15
2019-03-29T13:19:47.202Z,46.05
2019-03-29T13:22:17.464Z,39.90
2019-03-29T13:24:47.642Z,48.92
2019-03-29T13:27:17.892Z,57.70
2019-03-29T13:29:48.138Z,43.45
2019-03-29T13:32:18.592Z,52.50
2019-03-29T13:34:51.363Z,43.35
2019-03-29T13:37:20.822Z,53.25
2019-03-29T13:39:52.142Z,42.90
2019-03-29T13:42:25.664Z,44.88
2019-03-29T13:44:55.955Z,52.48
2019-03-29T13:47:26.251Z,45.15
2019-03-29T13:50:02.620Z,42.33
2019-03-29T13:52:32.829Z,36.73
2019-03-29T13:55:09.790Z,59.88
2019-03-29T13:57:39.931Z,48.65
2019-03-29T14:00:14.092Z,54.55
2019-03-29T14:02:45.500Z,49.25
2019-03-29T14:05:15.813Z,36.68
2019-03-29T14:07:48.511Z,46.73
2019-03-29T14:10:18.802Z,39.40
2019-03-29T14:12:50.874Z,32.13
2019-03-29T14:15:21.083Z,44.77
2019-03-29T14:17:53.395Z,64.87
2019-03-29T14:20:33.179Z,39.78
2019-03-29T14:23:06.650Z,47.67
2019-03-29T14:25:37.063Z,48.52
2019-03-29T14:28:07.365Z,60.50
2019-03-29T14:30:39.608Z,47.23
2019-03-29T14:33:09.903Z,45.48
2019-03-29T14:35:40.366Z,35.90
2019-03-29T14:38:14.600Z,38.73
2019-03-29T14:40:48.426Z,40.92
2019-03-29T14:43:18.603Z,43.13
2019-03-29T14:45:48.783Z,36.98
2019-03-29T14:48:21.779Z,47.35
2019-03-29T14:50:52.680Z,33.73
2019-03-29T14:53:22.974Z,46.00
2019-03-29T14:55:54.910Z,33.50
2019-03-29T14:58:25.404Z,26.77
2019-03-29T15:00:58.152Z,48.52
2019-03-29T15:03:30.779Z,42.83
2019-03-29T15:06:03.073Z,36.25
2019-03-29T15:08:35.735Z,30.02
2019-03-29T15:11:06.167Z,30.48
2019-03-29T15:13:36.309Z,25.43
2019-03-29T15:16:06.500Z,25.27
2019-03-29T15:18:36.881Z,15.75
2019-03-29T15:21:10.422Z,21.17
2019-03-29T15:23:42.821Z,17.37
2019-03-29T15:26:13.051Z,19.65
2019-03-29T15:28:50.216Z,18.23
2019-03-29T15:31:20.390Z,16.87
2019-03-29T15:33:55.505Z,13.72
2019-03-29T15:36:24.605Z,10.98
2019-03-29T15:38:54.890Z,13.22
2019-03-29T15:41:26.802Z,17.00
2019-03-29T15:43:59.717Z,17.70
2019-03-29T15:46:29.948Z,15.20
2019-03-29T15:49:02.229Z,14.65
2019-03-29T15:51:32.615Z,12.85
2019-03-29T15:54:03.336Z,19.00
2019-03-29T15:56:33.882Z,18.67
2019-03-29T15:59:04.130Z,14.87
2019-03-29T16:01:34.395Z,36.70
2019-03-29T16:04:04.867Z,19.85
2019-03-29T16:06:35.196Z,11.75
2019-03-29T16:09:06.868Z,13.95
2019-03-29T16:11:37.068Z,12.90
2019-03-29T16:14:07.775Z,11.95
2019-03-29T16:16:38.092Z,15.50
2019-03-29T16:19:08.947Z,13.18
2019-03-29T16:21:44.072Z,10.82
2019-03-29T16:24:14.223Z,12.05
2019-03-29T16:26:45.707Z,13.93
2019-03-29T16:29:15.873Z,11.03
2019-03-29T16:31:52.334Z,10.98
2019-03-29T16:34:22.506Z,12.28
2019-03-29T16:36:52.678Z,8.70
2019-03-29T16:39:22.840Z,11.15
2019-03-29T16:41:53.194Z,16.40
2019-03-29T16:44:24.926Z,9.55
2019-03-29T16:46:59.613Z,8.25
2019-03-29T16:49:29.789Z,9.63
2019-03-29T16:52:01.316Z,6.90
2019-03-29T16:54:31.542Z,11.12
2019-03-29T16:57:01.887Z,7.60
2019-03-29T16:59:32.097Z,15.65
2019-03-29T17:02:06.326Z,11.65
2019-03-29T17:04:36.492Z,12.00
2019-03-29T17:07:06.651Z,12.33
2019-03-29T17:09:36.798Z,16.10
2019-03-29T17:12:07.036Z,8.05
2019-03-29T17:14:37.207Z,7.35
2019-03-29T17:17:07.373Z,8.85
2019-03-29T17:19:37.536Z,11.93
2019-03-29T17:22:10.164Z,10.53
2019-03-29T17:24:40.333Z,9.08
2019-03-29T17:27:10.583Z,8.03
2019-03-29T17:29:41.783Z,5.55
2019-03-29T17:32:11.928Z,7.47
2019-03-29T17:34:42.096Z,5.67
2019-03-29T17:37:12.263Z,7.75
2019-03-29T17:39:43.605Z,10.25
2019-03-29T17:42:13.839Z,9.40
2019-03-29T17:44:44.110Z,14.43
2019-03-29T17:47:18.381Z,8.90
2019-03-29T17:49:48.582Z,10.80
2019-03-29T17:52:18.768Z,5.83
2019-03-29T17:54:48.904Z,9.33
2019-03-29T17:57:19.202Z,10.30
2019-03-29T17:59:49.459Z,11.68
2019-03-29T18:02:19.821Z,7.33
2019-03-29T18:04:50.082Z,14.65
2019-03-29T18:07:21.940Z,9.88
2019-03-29T18:09:52.137Z,9.63
2019-03-29T18:12:22.290Z,8.78
2019-03-29T18:14:52.537Z,7.33
2019-03-29T18:17:22.779Z,13.22
2019-03-29T18:19:52.997Z,12.47
2019-03-29T18:22:23.170Z,10.43
2019-03-29T18:24:55.500Z,7.40
2019-03-29T18:27:25.664Z,9.90
2019-03-29T18:29:57.032Z,7.33
2019-03-29T18:32:27.344Z,10.20
2019-03-29T18:34:57.852Z,6.60
2019-03-29T18:37:29.823Z,12.47
2019-03-29T18:40:01.779Z,10.03
2019-03-29T18:42:33.292Z,14.07
2019-03-29T18:45:03.699Z,10.03
2019-03-29T18:47:33.929Z,34.48
2019-03-29T18:50:04.374Z,25.60
2019-03-29T18:52:37.135Z,19.67
2019-03-29T18:55:07.629Z,20.70
2019-03-29T18:57:37.748Z,21.50
2019-03-29T19:00:09.943Z,21.30
2019-03-29T19:02:40.174Z,28.23
2019-03-29T19:05:14.911Z,23.22
2019-03-29T19:07:45.127Z,23.12
2019-03-29T19:10:15.373Z,18.70
2019-03-29T19:12:45.526Z,22.93
2019-03-29T19:15:16.653Z,31.62
2019-03-29T19:17:48.417Z,25.82
2019-03-29T19:20:27.496Z,18.95
2019-03-29T19:22:50.510Z,18.65
2019-03-29T19:25:20.836Z,20.68
2019-03-29T19:27:53.663Z,22.67
2019-03-29T19:30:24.782Z,26.62
2019-03-29T19:32:56.453Z,23.55
2019-03-29T19:35:29.064Z,14.58
2019-03-29T19:37:59.223Z,16.02
2019-03-29T19:40:30.540Z,18.25
2019-03-29T19:43:00.718Z,14.43
2019-03-29T19:45:34.395Z,26.90
2019-03-29T19:48:04.995Z,22.05
2019-03-29T19:50:35.171Z,12.98
2019-03-29T19:53:05.352Z,19.25
2019-03-29T19:55:37.915Z,15.80
2019-03-29T19:58:10.490Z,25.85
2019-03-29T20:00:42.133Z,17.62
2019-03-29T20:03:12.425Z,16.73
2019-03-29T20:05:42.769Z,14.87
2019-03-29T20:08:13.022Z,16.90
2019-03-29T20:10:43.258Z,18.02
2019-03-29T20:13:15.441Z,21.52
2019-03-29T20:15:45.628Z,13.62
2019-03-29T20:18:16.000Z,23.65
2019-03-29T20:20:46.173Z,20.55
2019-03-29T20:23:16.330Z,18.77
2019-03-29T20:25:48.409Z,19.77
2019-03-29T20:28:18.614Z,16.93
2019-03-29T20:30:49.060Z,15.28
2019-03-29T20:33:19.247Z,30.90
2019-03-29T20:35:53.388Z,19.98
2019-03-29T20:38:25.858Z,26.10
2019-03-29T20:40:58.833Z,21.82
2019-03-29T20:43:28.982Z,19.95
2019-03-29T20:46:01.494Z,23.35
2019-03-29T20:48:31.664Z,24.07
2019-03-29T20:51:03.934Z,28.23
2019-03-29T20:53:34.446Z,24.95
2019-03-29T20:56:06.691Z,29.77
2019-03-29T20:58:36.951Z,27.55
2019-03-29T21:01:07.151Z,27.02
2019-03-29T21:03:37.362Z,26.50
2019-03-29T21:06:10.213Z,22.15
2019-03-29T21:08:42.027Z,33.92
2019-03-29T21:11:12.253Z,27.17
2019-03-29T21:13:42.632Z,27.15
2019-03-29T21:16:12.817Z,25.92
2019-03-29T21:18:43.031Z,21.05
2019-03-29T21:21:13.193Z,22.02
2019-03-29T21:23:43.496Z,19.45
2019-03-29T21:26:13.659Z,27.42
2019-03-29T21:28:45.995Z,28.10
2019-03-29T21:31:16.158Z,19.40
2019-03-29T21:33:46.397Z,20.32
2019-03-29T21:36:19.044Z,23.05
2019-03-29T21:38:53.782Z,19.65
2019-03-29T21:41:24.029Z,15.80
2019-03-29T21:43:54.364Z,19.35
2019-03-29T21:46:24.818Z,23.40
2019-03-29T21:48:54.974Z,19.35
2019-03-29T21:51:25.299Z,24.95
2019-03-29T21:53:55.648Z,24.00
2019-03-29T21:56:25.897Z,18.73
2019-03-29T21:58:58.155Z,21.85
2019-03-29T22:01:28.319Z,27.35
2019-03-29T22:04:01.548Z,29.65
2019-03-29T22:06:36.060Z,27.40
2019-03-29T22:09:07.772Z,16.95
2019-03-29T22:11:38.071Z,24.77
2019-03-29T22:14:08.219Z,18.80
2019-03-29T22:16:38.462Z,23.90
2019-03-29T22:19:10.033Z,24.87
2019-03-29T22:21:40.196Z,29.35
2019-03-29T22:24:10.518Z,21.65
2019-03-29T22:26:46.620Z,14.78
2019-03-29T22:29:16.832Z,23.67
2019-03-29T22:31:47.167Z,24.75
2019-03-29T22:34:18.972Z,32.90
2019-03-29T22:36:49.298Z,18.27
2019-03-29T22:39:19.474Z,21.30
2019-03-29T22:41:49.619Z,20.68
2019-03-29T22:44:21.755Z,27.17
2019-03-29T22:46:51.908Z,36.20
2019-03-29T22:49:22.130Z,25.23
2019-03-29T22:51:53.487Z,16.87
2019-03-29T22:54:23.751Z,22.22
2019-03-29T22:56:53.924Z,20.65
2019-03-29T22:59:24.068Z,27.50
2019-03-29T23:01:54.380Z,22.70
2019-03-29T23:04:27.259Z,20.50
2019-03-29T23:06:58.624Z,20.32
2019-03-29T23:09:29.113Z,23.32
2019-03-29T23:11:58.565Z,26.95
2019-03-29T23:14:28.710Z,20.37
2019-03-29T23:16:58.860Z,26.12
2019-03-29T23:19:29.042Z,24.35
2019-03-29T23:21:59.198Z,27.93
2019-03-29T23:24:31.016Z,16.37
2019-03-29T23:27:01.178Z,23.15
2019-03-29T23:29:32.316Z,14.55
2019-03-29T23:32:02.514Z,18.77
2019-03-29T23:34:32.784Z,17.20
2019-03-29T23:37:02.950Z,18.23
2019-03-29T23:39:33.186Z,25.25
2019-03-29T23:42:04.521Z,20.90
2019-03-29T23:44:34.715Z,25.90
2019-03-29T23:47:04.875Z,18.02
2019-03-29T23:49:35.032Z,19.80
2019-03-29T23:52:05.203Z,24.95
2019-03-29T23:54:35.475Z,19.75
2019-03-29T23:57:08.764Z,20.27
2019-03-29T23:59:38.935Z,17.65
